Hernderson, Zimbabwe

4:11 PM CAT on February 13, 2016 (GMT +0200)
Harare International | | Change Station
CLOSE
Current Station
Airport
Location: Harare Kutsaga,
Elevation: 4856 ft
Nearby Weather Stations

Elev 4856 ft 17.92 °S, 31.13 °E | Updated 11 minutes ago

Thunderstorm
Thunderstorm
79 °F
Feels Like 79 °F
N
7
Wind Variable Wind from North

Today
High -- | Low -- °F
--% Chance of Precip.
Yesterday
High -- | Low -- °F
Precip. -- in
Pressure 30.01 in
Visibility 6.2 miles
Clouds Few 2500 ft
Scattered Clouds 3000 ft
Mostly Cloudy 9000 ft
Dew Point 63 °F
Humidity 57%
Rainfall 0.00 in
Snow Depth Not available.
5:49 AM 6:31 PM
Waxing Crescent, 31% visible
METAR FVHA 131400Z 01006KT 340V040 9999 TS FEW025CB SCT030TCU BKN090 26/17 Q1016 NOSIG
Pressure 30.01 in
Visibility 6.2 miles
Clouds Few 2500 ft
Scattered Clouds 3000 ft
Mostly Cloudy 9000 ft
Dew Point 63 °F
Humidity 57%
Rainfall 0.00 in
Snow Depth Not available.
5:49 AM 6:31 PM
Waxing Crescent, 31% visible
METAR FVHA 131400Z 01006KT 340V040 9999 TS FEW025CB SCT030TCU BKN090 26/17 Q1016 NOSIG

10-Day Weather Forecast

No radar image for this location.
×

Almanac

Astronomy

Feb. 13, 2016 Rise Set
Actual Time
Civil Twilight
Nautical Twilight
Astronomical Twilight
Moon
Length of Visible Light
Length of Day
Tomorrow will be .
, % of the Moon is Illuminated

Today's Extremes

Country Highs Country Lows

Community

WunderPhotos

Upload Photos

1,892,558 photos uploaded!

WunderBlog® & News

Nearby

Air Quality

  Air Quality AQ Index Pollutant
Not available.

Snow Depth

Station Depth Elevation

Earthquake Activity

City Distance Mag. Time & Date
Minimum magnitude displayed is 2.5.

Coastal Water Temperatures

Place Temperature

Stations

Nearby Weather Stations

Station Location Temp. Windchill Dew Point Humidity Wind Precip. Elev Updated Type